createdAt,value
2024-04-18T00:03:07.205Z,9.32
2024-04-18T00:08:30.271Z,9.23
2024-04-18T00:13:55.920Z,7.50
2024-04-18T00:19:31.103Z,6.80
2024-04-18T00:24:54.076Z,5.75
2024-04-18T00:30:19.926Z,6.65
2024-04-18T00:35:47.368Z,6.47
2024-04-18T00:41:10.368Z,6.88
2024-04-18T00:46:57.231Z,6.20
2024-04-18T00:52:27.465Z,6.00
2024-04-18T00:57:51.106Z,5.00
2024-04-18T01:03:17.055Z,4.47
2024-04-18T01:08:40.846Z,4.28
2024-04-18T01:14:24.076Z,4.47
2024-04-18T01:20:01.980Z,4.85
2024-04-18T01:25:24.947Z,4.38
2024-04-18T01:30:50.588Z,5.63
2024-04-18T01:36:13.575Z,5.40
2024-04-18T01:41:46.759Z,5.60
2024-04-18T01:47:32.506Z,5.05
2024-04-18T01:53:04.870Z,5.53
2024-04-18T01:58:34.816Z,5.13
2024-04-18T02:04:00.572Z,3.72
2024-04-18T02:09:23.605Z,4.43
2024-04-18T02:14:47.019Z,4.40
2024-04-18T02:20:13.747Z,3.67
2024-04-18T02:25:36.732Z,3.67
2024-04-18T02:30:59.793Z,4.53
2024-04-18T02:36:45.412Z,4.67
2024-04-18T02:42:08.774Z,4.93
2024-04-18T02:47:51.776Z,5.50
2024-04-18T02:53:35.838Z,7.53
2024-04-18T02:59:04.461Z,4.88
2024-04-18T03:04:43.958Z,5.30
2024-04-18T03:10:09.922Z,4.95
2024-04-18T03:15:53.025Z,4.50
2024-04-18T03:21:16.302Z,4.30
2024-04-18T03:26:42.080Z,5.03
2024-04-18T03:32:06.348Z,4.67
2024-04-18T03:37:41.227Z,5.07
2024-04-18T03:43:29.796Z,4.32
2024-04-18T03:48:53.129Z,4.03
2024-04-18T03:54:16.207Z,3.50
2024-04-18T03:59:50.653Z,3.30
2024-04-18T04:05:13.556Z,3.90
2024-04-18T04:10:36.492Z,3.95
2024-04-18T04:16:02.008Z,3.10
2024-04-18T04:21:35.010Z,3.75
2024-04-18T04:26:58.141Z,3.70
2024-04-18T04:32:24.666Z,4.07
2024-04-18T04:37:47.727Z,3.50
2024-04-18T04:43:10.804Z,2.97
2024-04-18T04:48:36.592Z,3.92
2024-04-18T04:54:08.620Z,3.53
2024-04-18T04:59:38.383Z,3.35
2024-04-18T05:05:04.516Z,3.75
2024-04-18T05:10:27.749Z,5.60
2024-04-18T05:15:51.068Z,2.90
2024-04-18T05:21:29.543Z,3.17
2024-04-18T05:27:11.918Z,5.18
2024-04-18T05:32:35.051Z,7.22
2024-04-18T05:38:10.045Z,4.50
2024-04-18T05:43:35.267Z,3.90
2024-04-18T05:48:59.047Z,2.97
2024-04-18T05:54:25.196Z,4.53
2024-04-18T06:00:00.706Z,4.13
2024-04-18T06:20:12.096Z,3.23
2024-04-18T06:25:36.138Z,3.10
2024-04-18T06:31:01.514Z,3.40
2024-04-18T06:36:27.588Z,5.63
2024-04-18T06:42:06.864Z,5.18
2024-04-18T06:48:10.482Z,26.60
2024-04-18T06:53:45.727Z,14.13
2024-04-18T06:59:11.777Z,3.38
2024-04-18T07:04:47.273Z,3.53
2024-04-18T07:10:17.442Z,2.35
2024-04-18T07:15:51.414Z,3.20
2024-04-18T07:21:32.609Z,2.85
2024-04-18T07:27:19.940Z,3.35
2024-04-18T07:32:43.084Z,2.03
2024-04-18T07:38:06.997Z,2.10
2024-04-18T07:43:32.639Z,2.67
2024-04-18T07:49:00.835Z,3.00
2024-04-18T07:54:27.690Z,4.40
2024-04-18T07:59:54.883Z,4.53
2024-04-18T08:05:22.179Z,4.22
2024-04-18T08:11:06.856Z,3.60
2024-04-18T08:16:33.213Z,3.22
2024-04-18T08:21:58.145Z,3.75
2024-04-18T08:27:21.897Z,2.92
2024-04-18T08:32:50.107Z,3.03
2024-04-18T08:38:25.127Z,2.70
2024-04-18T08:43:52.447Z,8.63
2024-04-18T08:49:21.363Z,3.40
2024-04-18T08:54:44.435Z,3.80
2024-04-18T09:00:09.587Z,1.77
2024-04-18T09:05:38.978Z,2.40
2024-04-18T09:11:02.281Z,1.58
2024-04-18T09:16:25.436Z,1.80
2024-04-18T09:21:51.414Z,1.90
2024-04-18T09:27:15.237Z,1.95
2024-04-18T09:32:40.665Z,2.90
2024-04-18T09:38:15.478Z,2.13
2024-04-18T09:43:45.931Z,2.38
2024-04-18T09:49:12.244Z,5.50
2024-04-18T09:54:38.916Z,2.17
2024-04-18T10:00:03.404Z,2.87
2024-04-18T10:05:34.987Z,2.03
2024-04-18T10:11:02.015Z,2.40
2024-04-18T10:16:27.128Z,2.20
2024-04-18T10:22:06.389Z,1.90
2024-04-18T10:27:47.887Z,1.70
2024-04-18T10:33:12.286Z,1.80
2024-04-18T10:38:36.653Z,2.70
2024-04-18T10:44:08.233Z,2.67
2024-04-18T10:49:32.008Z,5.30
2024-04-18T10:54:55.716Z,3.70
2024-04-18T11:00:22.018Z,3.10
2024-04-18T11:05:48.410Z,1.13
2024-04-18T11:11:21.439Z,1.80
2024-04-18T11:16:56.563Z,1.40
2024-04-18T11:22:23.755Z,2.00
2024-04-18T11:27:50.709Z,1.70
2024-04-18T11:33:20.721Z,2.53
2024-04-18T11:38:47.298Z,2.67
2024-04-18T11:44:10.428Z,1.92
2024-04-18T11:49:35.988Z,1.40
2024-04-18T11:55:02.681Z,2.25
2024-04-18T12:00:34.969Z,2.20
2024-04-18T12:06:16.953Z,2.53
2024-04-18T12:11:46.946Z,1.60
2024-04-18T12:17:12.597Z,1.97
2024-04-18T12:22:41.102Z,2.60
2024-04-18T12:28:09.514Z,2.33
2024-04-18T12:33:39.394Z,2.38
2024-04-18T12:39:07.017Z,1.80
2024-04-18T12:44:31.856Z,2.00
2024-04-18T12:50:16.788Z,1.65
2024-04-18T12:55:42.525Z,1.20
2024-04-18T13:01:05.752Z,2.30
2024-04-18T13:06:35.023Z,1.90
2024-04-18T13:12:20.467Z,2.27
2024-04-18T13:17:52.338Z,2.25
2024-04-18T13:23:16.003Z,2.25
2024-04-18T13:28:41.634Z,1.37
2024-04-18T13:34:10.341Z,1.77
2024-04-18T13:39:33.678Z,2.20
2024-04-18T13:45:05.541Z,1.73
2024-04-18T13:50:48.758Z,2.08
2024-04-18T13:56:14.273Z,1.67
2024-04-18T14:01:59.570Z,1.48
2024-04-18T14:07:48.461Z,1.10
2024-04-18T14:13:23.733Z,0.95
2024-04-18T14:18:49.298Z,1.88
2024-04-18T14:24:28.758Z,1.80
2024-04-18T14:29:54.383Z,1.90
2024-04-18T14:35:31.458Z,2.60
2024-04-18T14:41:06.222Z,2.40
2024-04-18T14:46:34.477Z,2.15
2024-04-18T14:52:19.294Z,2.08
2024-04-18T14:57:42.248Z,1.60
2024-04-18T15:03:14.927Z,3.97
2024-04-18T15:08:42.386Z,2.03
2024-04-18T15:14:20.107Z,2.90
2024-04-18T15:19:42.767Z,1.65
2024-04-18T15:25:26.990Z,2.05
2024-04-18T15:30:49.697Z,1.50
2024-04-18T15:36:21.283Z,1.40
2024-04-18T15:41:49.521Z,1.40
2024-04-18T15:47:12.415Z,4.93
2024-04-18T15:52:40.606Z,4.60
2024-04-18T15:58:05.874Z,9.70
2024-04-18T16:03:35.111Z,6.47
2024-04-18T16:09:16.808Z,3.88
2024-04-18T16:14:42.696Z,4.40
2024-04-18T16:20:06.325Z,11.68
2024-04-18T16:25:36.119Z,8.00
2024-04-18T16:31:01.879Z,4.93
2024-04-18T16:36:31.998Z,5.72
2024-04-18T16:42:04.558Z,5.13
2024-04-18T16:47:30.426Z,5.55
2024-04-18T16:52:53.397Z,6.20
2024-04-18T16:58:34.686Z,5.57
2024-04-18T17:04:00.091Z,6.05
2024-04-18T17:09:26.042Z,5.38
2024-04-18T17:14:51.779Z,4.43
2024-04-18T17:20:17.335Z,3.60
2024-04-18T17:25:39.955Z,5.10
2024-04-18T17:31:03.295Z,8.25
2024-04-18T17:36:34.289Z,6.00
2024-04-18T17:42:06.292Z,5.47
2024-04-18T17:47:50.773Z,5.03
2024-04-18T17:53:16.325Z,5.15
2024-04-18T17:58:38.954Z,6.45
2024-04-18T18:04:10.289Z,6.68
2024-04-18T18:09:35.788Z,5.13
2024-04-18T18:14:59.765Z,5.17
2024-04-18T18:20:22.497Z,5.90
2024-04-18T18:25:48.883Z,8.70
2024-04-18T18:31:11.680Z,10.10
2024-04-18T18:36:54.382Z,35.17
2024-04-18T18:42:19.688Z,22.97
2024-04-18T18:47:42.457Z,13.68
2024-04-18T18:53:14.476Z,11.75
2024-04-18T18:58:39.869Z,11.98
2024-04-18T19:04:02.747Z,9.77
2024-04-18T19:09:25.772Z,10.03
2024-04-18T19:14:52.676Z,6.03
2024-04-18T19:20:15.796Z,6.63
2024-04-18T19:25:55.020Z,10.80
2024-04-18T19:31:20.414Z,12.07
2024-04-18T19:36:43.290Z,12.47
2024-04-18T19:42:06.066Z,13.15
2024-04-18T19:47:31.493Z,16.00
2024-04-18T19:52:54.382Z,13.98
2024-04-18T19:58:17.253Z,12.95
2024-04-18T20:03:42.724Z,12.57
2024-04-18T20:09:05.545Z,12.75
2024-04-18T20:14:28.357Z,11.30
2024-04-18T20:19:53.944Z,9.55
2024-04-18T20:25:16.737Z,8.80
2024-04-18T20:30:39.574Z,9.30
2024-04-18T20:36:05.921Z,10.18
2024-04-18T20:41:28.652Z,10.00
2024-04-18T20:46:51.432Z,10.73
2024-04-18T20:52:16.974Z,9.90
2024-04-18T20:57:42.606Z,10.13
2024-04-18T21:03:05.788Z,11.88
2024-04-18T21:08:31.213Z,11.27
2024-04-18T21:13:53.950Z,13.13
2024-04-18T21:19:21.002Z,9.93
2024-04-18T21:24:47.531Z,10.53
2024-04-18T21:30:11.245Z,9.32
2024-04-18T21:35:34.064Z,9.93
2024-04-18T21:41:00.720Z,10.18
2024-04-18T21:46:23.664Z,8.82
2024-04-18T21:51:46.394Z,10.73
2024-04-18T21:57:11.881Z,10.88
2024-04-18T22:02:34.591Z,10.82
2024-04-18T22:07:57.399Z,11.27
2024-04-18T22:13:22.669Z,13.05
2024-04-18T22:18:45.626Z,13.83
2024-04-18T22:24:08.962Z,13.05
2024-04-18T22:29:34.568Z,12.10
2024-04-18T22:34:57.338Z,12.55
2024-04-18T22:40:26.013Z,12.25
2024-04-18T22:45:52.716Z,11.57
2024-04-18T22:51:15.545Z,13.48
2024-04-18T22:56:38.323Z,16.00
2024-04-18T23:08:51.741Z,13.38
2024-04-18T23:14:14.527Z,12.67
2024-04-18T23:19:37.262Z,15.30
2024-04-18T23:25:02.701Z,13.60
2024-04-18T23:30:25.581Z,14.45
2024-04-18T23:35:48.533Z,13.13
2024-04-18T23:41:13.797Z,12.50
2024-04-18T23:46:36.550Z,12.30
2024-04-18T23:51:59.297Z,16.58
2024-04-18T23:57:24.808Z,17.42
